Time;durP1;ratioP1;P1;durP2;ratioP2;P2;SDS_P1;SDS_P2;PMS_P1;PMS_P2;Temp;Humidity;BMP_temperature;BMP_pressure;BME280_temperature;BME280_humidity;BME280_pressure;Samples;Min_cycle;Max_cycle;Signal;HPM_P1;HPM_P2
2024/01/13 00:01:25;;;;;;;20.37;11.80;;;;;;;-1.07;57.96;100476.53;7766268;32;37754;-82
2024/01/13 00:05:42;;;;;;;23.98;12.45;;;;;;;-0.98;57.92;100487.00;7766333;32;37061;-83
2024/01/13 00:09:58;;;;;;;23.45;13.50;;;;;;;-1.38;59.01;100496.12;7766131;32;39183;-83
2024/01/13 00:14:14;;;;;;;22.45;12.27;;;;;;;-1.52;59.74;100497.72;7766255;32;39902;-84
2024/01/13 00:18:31;;;;;;;20.80;12.05;;;;;;;-1.10;58.36;100492.94;7766070;32;38022;-81
2024/01/13 00:22:55;;;;;;;25.40;12.98;;;;;;;-1.31;59.19;100486.41;7766095;32;37700;-82
2024/01/13 00:27:12;;;;;;;22.35;12.07;;;;;;;-0.82;57.85;100486.03;7765392;32;39883;-82
2024/01/13 00:31:28;;;;;;;22.10;12.45;;;;;;;-0.99;58.17;100496.03;7765990;32;39953;-82
2024/01/13 00:35:44;;;;;;;20.48;11.85;;;;;;;-1.25;59.01;100496.38;7765468;32;38119;-82
2024/01/13 00:40:01;;;;;;;22.13;12.70;;;;;;;-1.01;58.32;100494.56;7765566;32;37984;-82
2024/01/13 00:44:17;;;;;;;20.40;12.40;;;;;;;-1.71;59.81;100501.63;7765873;32;40135;-82
2024/01/13 00:48:35;;;;;;;24.83;12.65;;;;;;;-1.46;59.25;100509.56;7765786;32;40764;-82
2024/01/13 00:52:57;;;;;;;17.95;11.48;;;;;;;-1.54;59.55;100505.06;7765739;32;38775;-82
2024/01/13 00:57:13;;;;;;;21.00;10.55;;;;;;;-1.17;58.54;100499.00;7751991;32;36798;-82
2024/01/13 01:01:30;;;;;;;18.50;10.80;;;;;;;-1.31;58.67;100513.16;7765680;32;39871;-82
2024/01/13 01:05:46;;;;;;;18.35;10.38;;;;;;;-0.99;57.78;100516.62;7765694;32;40769;-82
2024/01/13 01:10:02;;;;;;;19.80;12.27;;;;;;;-0.79;57.19;100512.44;7765587;32;37709;-82
2024/01/13 01:14:19;;;;;;;21.15;10.60;;;;;;;-1.37;59.12;100511.19;7765328;32;37957;-82
2024/01/13 01:18:35;;;;;;;19.52;11.12;;;;;;;-0.91;57.62;100500.50;7765447;32;40148;-82
2024/01/13 01:23:00;;;;;;;18.08;10.70;;;;;;;-1.23;58.51;100499.72;7765279;32;40975;-82
2024/01/13 01:27:17;;;;;;;16.55;10.85;;;;;;;-1.33;58.98;100488.41;7765345;32;38008;-82
2024/01/13 01:31:33;;;;;;;14.40;9.38;;;;;;;-1.52;59.22;100490.53;7765501;32;37126;-82
2024/01/13 01:35:49;;;;;;;20.23;10.68;;;;;;;-0.96;57.16;100476.94;7765229;32;39053;-82
2024/01/13 01:40:07;;;;;;;17.70;11.05;;;;;;;-1.32;58.31;100457.97;7765114;32;40777;-82
2024/01/13 01:44:24;;;;;;;16.20;10.07;;;;;;;-1.25;57.78;100450.06;7765141;32;39139;-82
2024/01/13 01:48:43;;;;;;;16.83;10.57;;;;;;;-1.77;59.41;100451.56;7765083;32;37817;-82
2024/01/13 01:53:01;;;;;;;18.75;10.07;;;;;;;-1.60;59.20;100450.47;7751649;32;39207;-82
2024/01/13 01:57:19;;;;;;;19.42;10.52;;;;;;;-0.92;57.00;100441.78;7751381;32;41064;-82
2024/01/13 02:01:36;;;;;;;16.37;10.10;;;;;;;-1.04;57.43;100441.38;7751216;32;39165;-82
2024/01/13 02:05:53;;;;;;;17.08;10.70;;;;;;;-0.94;56.85;100428.56;7764987;32;37973;-82
2024/01/13 02:10:09;;;;;;;18.45;10.68;;;;;;;-0.73;56.20;100429.72;7764842;32;39210;-82
2024/01/13 02:14:25;;;;;;;19.42;11.23;;;;;;;-0.84;56.23;100431.84;7775827;32;40651;-82
2024/01/13 02:18:42;;;;;;;17.45;10.40;;;;;;;-0.47;55.34;100429.28;7777762;32;37882;-82
2024/01/13 02:22:59;;;;;;;17.00;10.32;;;;;;;-1.41;58.15;100445.69;7791569;32;37849;-82
2024/01/13 02:27:15;;;;;;;17.65;10.25;;;;;;;-0.96;56.64;100425.25;7790798;32;38916;-82
2024/01/13 02:31:31;;;;;;;15.77;10.77;;;;;;;-1.14;57.25;100436.25;7791705;32;40648;-82
2024/01/13 02:35:48;;;;;;;16.92;10.23;;;;;;;-0.63;55.48;100420.41;7791454;32;38560;-82
2024/01/13 02:40:04;;;;;;;15.73;10.10;;;;;;;-0.73;55.86;100424.38;7790963;32;36961;-82
2024/01/13 02:44:20;;;;;;;17.75;9.75;;;;;;;-0.71;55.73;100419.66;7791435;32;39229;-82
2024/01/13 02:48:42;;;;;;;15.63;9.45;;;;;;;-0.52;55.07;100405.72;7790522;32;40081;-82
2024/01/13 02:52:59;;;;;;;14.38;9.82;;;;;;;-1.13;56.32;100400.47;7791342;32;37603;-82
2024/01/13 02:57:15;;;;;;;15.23;9.98;;;;;;;-1.09;56.68;100388.38;7791141;32;36798;-83
2024/01/13 03:01:33;;;;;;;18.02;9.30;;;;;;;-1.02;56.87;100393.84;7790862;32;39443;-82
2024/01/13 03:05:49;;;;;;;15.00;9.18;;;;;;;-0.72;55.57;100399.28;7790835;32;40830;-82
2024/01/13 03:10:06;;;;;;;12.70;8.75;;;;;;;-0.64;55.24;100388.47;7789269;32;37706;-83
2024/01/13 03:14:23;;;;;;;16.85;9.20;;;;;;;-0.43;54.39;100383.22;7790589;32;37198;-83
2024/01/13 03:18:39;;;;;;;16.20;8.85;;;;;;;-0.79;55.47;100385.78;7790508;32;39934;-82
2024/01/13 03:22:58;;;;;;;13.40;8.88;;;;;;;-1.03;56.11;100382.31;7790463;32;39988;-82
2024/01/13 03:27:14;;;;;;;16.90;9.07;;;;;;;-1.63;58.03;100386.63;7790330;32;38723;-83
2024/01/13 03:31:31;;;;;;;14.77;8.75;;;;;;;-0.68;55.77;100368.44;7790221;32;37149;-82
2024/01/13 03:35:47;;;;;;;18.70;10.00;;;;;;;-0.70;56.05;100368.59;7790125;32;39925;-83
2024/01/13 03:40:03;;;;;;;16.92;9.32;;;;;;;-1.02;57.21;100372.44;7789816;32;40761;-83
2024/01/13 03:44:20;;;;;;;12.40;8.73;;;;;;;-0.60;55.86;100365.66;7789859;32;38611;-83
2024/01/13 03:48:36;;;;;;;13.60;8.70;;;;;;;-0.34;55.25;100348.28;7770525;32;37738;-82
2024/01/13 03:52:53;;;;;;;13.38;9.00;;;;;;;-0.22;54.48;100350.28;7789683;32;40059;-82
2024/01/13 03:57:10;;;;;;;17.25;11.05;;;;;;;-0.37;54.62;100354.84;7789596;32;40645;-82
2024/01/13 04:01:26;;;;;;;16.65;10.05;;;;;;;-0.41;55.10;100353.56;7782616;32;37888;-82
2024/01/13 04:05:43;;;;;;;13.73;8.65;;;;;;;-0.13;54.41;100345.66;7766295;32;37950;-82
2024/01/13 04:09:59;;;;;;;15.63;10.38;;;;;;;-0.39;55.08;100346.16;7766346;32;39430;-83
2024/01/13 04:14:15;;;;;;;16.42;10.05;;;;;;;-0.33;55.19;100344.56;7766353;32;40828;-82
2024/01/13 04:18:31;;;;;;;17.17;9.43;;;;;;;-0.11;54.38;100343.59;7766110;32;37770;-83
2024/01/13 04:22:48;;;;;;;14.30;9.48;;;;;;;-0.39;55.72;100335.44;7766081;32;36971;-82
2024/01/13 04:27:04;;;;;;;17.62;8.95;;;;;;;0.17;54.14;100332.16;7766189;32;39963;-83
2024/01/13 04:31:21;;;;;;;17.17;10.68;;;;;;;-0.12;54.97;100328.56;7766033;32;40007;-83
2024/01/13 04:35:37;;;;;;;16.62;9.55;;;;;;;0.29;53.86;100330.62;7786450;32;37936;-83
2024/01/13 04:39:53;;;;;;;15.00;9.02;;;;;;;0.19;54.13;100338.19;7793104;32;37630;-82
2024/01/13 04:44:09;;;;;;;15.68;9.50;;;;;;;0.36;53.95;100323.50;7792486;32;39859;-83
2024/01/13 04:48:26;;;;;;;14.30;9.43;;;;;;;0.32;54.30;100334.78;7752129;32;39731;-82
2024/01/13 04:52:43;;;;;;;16.75;9.75;;;;;;;0.42;53.97;100311.16;7766045;32;37909;-82
2024/01/13 04:57:00;;;;;;;15.93;9.88;;;;;;;0.25;54.28;100324.00;7752105;32;36832;-82
2024/01/13 05:01:17;;;;;;;19.33;10.57;;;;;;;-0.34;56.36;100322.31;7765674;32;39443;-83
2024/01/13 05:05:33;;;;;;;20.15;10.98;;;;;;;0.41;54.18;100314.03;7765522;32;39869;-82
2024/01/13 05:09:50;;;;;;;15.73;9.68;;;;;;;0.43;54.03;100311.97;7765588;32;38019;-82
2024/01/13 05:14:07;;;;;;;18.00;9.60;;;;;;;0.68;53.25;100317.78;7765157;32;37219;-83
2024/01/13 05:18:23;;;;;;;17.10;9.77;;;;;;;0.70;53.25;100313.06;7766651;32;39507;-82
2024/01/13 05:22:40;;;;;;;19.15;10.07;;;;;;;0.43;54.06;100306.62;7792442;32;40774;-83
2024/01/13 05:27:02;;;;;;;17.53;9.83;;;;;;;0.15;55.40;100313.56;7792844;32;37833;-84
2024/01/13 05:31:19;;;;;;;21.67;11.85;;;;;;;0.29;55.56;100298.44;7770463;32;37060;-84
2024/01/13 05:35:35;;;;;;;19.58;11.30;;;;;;;-0.20;56.70;100301.87;7765335;32;39276;-82
2024/01/13 05:39:51;;;;;;;18.83;11.50;;;;;;;0.03;56.22;100303.56;7765591;32;40561;-82
2024/01/13 05:44:12;;;;;;;18.52;10.93;;;;;;;0.44;55.35;100298.37;7778742;32;38795;-82
2024/01/13 05:48:28;;;;;;;17.87;11.15;;;;;;;-0.14;56.74;100306.47;7782496;32;37821;-82
2024/01/13 05:52:45;;;;;;;19.02;10.57;;;;;;;0.07;56.49;100291.41;7792352;32;39326;-83
2024/01/13 05:57:02;;;;;;;18.98;9.88;;;;;;;0.25;56.31;100291.81;7792184;32;40910;-82
2024/01/13 06:01:18;;;;;;;19.90;11.23;;;;;;;-0.03;56.72;100283.72;7790988;32;37997;-83
2024/01/13 06:05:35;;;;;;;20.27;11.43;;;;;;;0.33;56.18;100275.59;7792163;32;37137;-83
2024/01/13 06:09:51;;;;;;;18.12;10.93;;;;;;;0.22;56.90;100277.97;7769552;32;40015;-83
2024/01/13 06:14:08;;;;;;;19.87;11.45;;;;;;;0.68;55.64;100272.97;7765022;32;40826;-83
2024/01/13 06:18:24;;;;;;;21.23;11.75;;;;;;;0.71;55.34;100258.34;7767537;32;37950;-83
2024/01/13 06:22:40;;;;;;;24.12;12.40;;;;;;;0.12;56.98;100278.28;7763848;32;37185;-83
2024/01/13 06:26:57;;;;;;;22.62;12.60;;;;;;;0.50;56.24;100270.78;7764601;32;40061;-83
2024/01/13 06:31:13;;;;;;;19.52;11.68;;;;;;;0.25;56.61;100273.03;7765610;32;40062;-82
2024/01/13 06:35:29;;;;;;;19.05;11.68;;;;;;;0.49;55.94;100260.25;7791200;32;38799;-83
2024/01/13 06:39:45;;;;;;;23.30;11.98;;;;;;;0.73;55.30;100254.44;7790866;32;37114;-82
2024/01/13 06:44:02;;;;;;;20.45;11.65;;;;;;;1.05;54.82;100260.22;7791416;32;39835;-83
2024/01/13 06:48:18;;;;;;;22.05;12.50;;;;;;;0.54;55.57;100258.63;7774503;32;39932;-82
2024/01/13 06:52:34;;;;;;;18.25;10.32;;;;;;;-0.03;57.85;100268.44;7763894;32;38055;-83
2024/01/13 06:56:51;;;;;;;20.23;10.93;;;;;;;0.25;57.89;100251.59;7763885;32;37192;-84
2024/01/13 07:01:07;;;;;;;16.75;9.68;;;;;;;-0.35;60.74;100260.87;7763831;32;39483;-82
2024/01/13 07:05:26;;;;;;;19.08;11.05;;;;;;;0.14;59.16;100252.12;7763757;32;39701;-83
2024/01/13 07:09:42;;;;;;;20.25;11.80;;;;;;;-0.52;61.74;100250.37;7763497;32;37893;-83
2024/01/13 07:13:59;;;;;;;20.62;11.23;;;;;;;0.04;60.07;100239.03;7763565;32;37223;-83
2024/01/13 07:18:15;;;;;;;17.90;10.23;;;;;;;0.04;60.41;100233.66;7763474;32;39202;-83
2024/01/13 07:22:31;;;;;;;13.98;8.85;;;;;;;0.02;60.28;100234.88;7763079;32;39841;-82
2024/01/13 07:26:48;;;;;;;22.58;13.02;;;;;;;-0.68;62.12;100229.19;7763171;32;38007;-83
2024/01/13 07:31:07;;;;;;;21.83;13.35;;;;;;;-0.63;62.44;100230.28;7763241;32;37931;-83
2024/01/13 07:35:23;;;;;;;21.08;11.93;;;;;;;-0.36;62.08;100232.41;7764722;32;39978;-83
2024/01/13 07:39:39;;;;;;;23.83;13.35;;;;;;;-0.25;62.08;100234.63;7766645;32;40686;-83
2024/01/13 07:43:56;;;;;;;24.63;12.23;;;;;;;-0.33;62.28;100237.41;7766577;32;38682;-83
2024/01/13 07:48:12;;;;;;;35.67;17.42;;;;;;;-0.13;62.32;100230.41;7766594;32;37146;-83
2024/01/13 07:52:29;;;;;;;35.40;17.23;;;;;;;-0.78;64.74;100235.66;7766359;32;40016;-83
2024/01/13 07:56:46;;;;;;;31.62;16.55;;;;;;;-0.66;65.11;100244.03;7766460;32;39951;-83
2024/01/13 08:01:03;;;;;;;41.50;19.45;;;;;;;-0.32;64.03;100236.41;7766320;32;38747;-83
2024/01/13 08:05:20;;;;;;;45.25;22.08;;;;;;;-0.72;65.76;100238.62;7766397;32;37008;-83
2024/01/13 08:09:37;;;;;;;37.97;19.85;;;;;;;-0.61;64.82;100251.50;7766351;32;39215;-84
2024/01/13 08:13:53;;;;;;;41.88;20.00;;;;;;;-0.64;64.66;100236.66;7766238;32;40861;-83
2024/01/13 08:18:10;;;;;;;35.70;17.33;;;;;;;0.46;61.59;100236.50;7766095;32;37753;-83
2024/01/13 08:22:26;;;;;;;25.05;12.45;;;;;;;0.00;62.65;100237.75;7765928;32;37111;-84
2024/01/13 08:26:43;;;;;;;41.47;18.48;;;;;;;-0.29;62.86;100246.75;7766057;32;39350;-82
2024/01/13 08:30:59;;;;;;;40.70;17.27;;;;;;;-0.34;64.03;100233.91;7766043;32;39890;-84
2024/01/13 08:35:15;;;;;;;20.30;10.75;;;;;;;-0.56;64.06;100225.00;7765946;32;38749;-83
2024/01/13 08:39:32;;;;;;;26.75;15.10;;;;;;;-0.64;64.26;100209.03;7766083;32;36880;-83
2024/01/13 08:43:48;;;;;;;33.15;14.50;;;;;;;-0.46;63.58;100214.81;7765833;32;39253;-82
2024/01/13 08:48:05;;;;;;;33.60;16.50;;;;;;;-0.59;64.06;100218.19;7765073;32;40790;-85
2024/01/13 08:52:21;;;;;;;50.70;19.27;;;;;;;-0.44;63.49;100223.47;7765703;32;38100;-68
2024/01/13 08:56:38;;;;;;;37.40;17.67;;;;;;;-0.39;65.36;100218.38;7765741;32;37737;-82
2024/01/13 09:00:56;;;;;;;33.30;18.37;;;;;;;-0.61;64.05;100219.38;7765662;32;40404;-83
2024/01/13 09:05:13;;;;;;;41.60;16.75;;;;;;;-0.91;64.94;100227.47;7765606;32;40886;-82
2024/01/13 09:09:29;;;;;;;39.33;16.67;;;;;;;-0.59;64.31;100212.81;7765623;32;38180;-83
2024/01/13 09:13:45;;;;;;;31.70;15.85;;;;;;;-0.33;63.30;100224.00;7765509;32;37067;-83
2024/01/13 09:18:03;;;;;;;41.37;17.58;;;;;;;-0.41;63.57;100223.09;7765401;32;39029;-83
2024/01/13 09:22:20;;;;;;;26.92;12.98;;;;;;;-0.65;64.57;100234.16;7765318;32;39741;-83
2024/01/13 09:26:44;;;;;;;33.40;16.10;;;;;;;-0.74;64.17;100244.16;7769249;32;37732;-82
2024/01/13 09:31:06;;;;;;;34.17;15.40;;;;;;;-0.42;63.61;100229.47;7778428;32;37973;-83
2024/01/13 09:35:23;;;;;;;34.10;14.93;;;;;;;-1.02;65.54;100233.25;7777888;32;39163;-83
2024/01/13 09:39:39;;;;;;;34.35;15.65;;;;;;;-0.53;63.49;100229.97;7771248;32;39766;-83
2024/01/13 09:44:23;;;;;;;27.50;12.60;;;;;;;-0.81;64.29;100222.66;7765012;32;38717;-73
2024/01/13 09:48:45;;;;;;;31.08;14.32;;;;;;;-0.33;64.95;100198.03;7765106;32;37092;-83
2024/01/13 09:53:04;;;;;;;23.38;12.00;;;;;;;-0.30;62.71;100199.50;7765094;32;39281;-82
2024/01/13 09:57:20;;;;;;;30.40;13.27;;;;;;;-0.09;61.90;100201.38;7763702;32;39895;-84
2024/01/13 10:01:36;;;;;;;28.25;13.75;;;;;;;-0.33;62.80;100194.53;7764627;32;37964;-83
2024/01/13 10:05:53;;;;;;;24.20;12.10;;;;;;;-0.43;63.20;100198.38;7764819;32;37310;-83
2024/01/13 10:10:09;;;;;;;24.05;12.65;;;;;;;-0.22;62.67;100192.19;7764755;32;39289;-83
2024/01/13 10:14:27;;;;;;;27.80;12.13;;;;;;;-0.62;63.92;100180.22;7765660;32;39997;-83
2024/01/13 10:18:43;;;;;;;29.08;13.43;;;;;;;0.04;62.72;100168.50;7764608;32;38600;-83
2024/01/13 10:23:01;;;;;;;19.12;10.38;;;;;;;-0.35;63.08;100169.78;7753523;32;351347;-83
2024/01/13 10:27:17;;;;;;;20.70;11.25;;;;;;;0.11;61.78;100169.37;7764572;32;38957;-83
2024/01/13 10:31:35;;;;;;;25.75;12.15;;;;;;;0.31;61.35;100175.72;7764505;32;39699;-74
2024/01/13 10:35:54;;;;;;;19.10;10.15;;;;;;;0.69;65.72;100159.25;7764462;32;37735;-83
2024/01/13 10:40:10;;;;;;;24.05;11.75;;;;;;;0.58;59.95;100146.38;7764315;32;37100;-83
2024/01/13 10:44:28;;;;;;;28.30;13.68;;;;;;;0.32;60.62;100150.56;7763908;32;39211;-83
2024/01/13 10:48:46;;;;;;;25.60;13.18;;;;;;;0.45;59.99;100138.25;7763002;32;39892;-83
2024/01/13 10:53:26;;;;;;;24.02;12.50;;;;;;;-0.08;61.87;100141.38;7763959;32;38710;-83
2024/01/13 10:57:43;;;;;;;21.98;12.45;;;;;;;0.72;59.49;100140.06;7762726;32;38126;-83
2024/01/13 11:01:59;;;;;;;25.60;11.57;;;;;;;0.33;59.94;100140.66;7763064;32;39002;-83
2024/01/13 11:06:16;;;;;;;26.48;13.43;;;;;;;0.42;59.58;100131.44;7763363;32;39618;-83
2024/01/13 11:10:36;;;;;;;28.20;12.48;;;;;;;-0.36;61.93;100125.25;7764907;32;38217;-83
2024/01/13 11:15:08;;;;;;;22.23;12.23;;;;;;;0.03;61.02;100127.44;7767109;32;37201;-83
2024/01/13 11:19:25;;;;;;;26.98;13.23;;;;;;;0.16;60.47;100127.53;7765889;32;40092;-83
2024/01/13 11:24:07;;;;;;;25.27;13.20;;;;;;;-0.49;61.83;100117.94;7766545;32;39918;-82
2024/01/13 11:28:23;;;;;;;29.37;13.10;;;;;;;0.00;61.05;100103.72;7766902;32;39227;-82
2024/01/13 11:32:41;;;;;;;25.55;11.95;;;;;;;-0.31;61.63;100109.44;7766739;32;37047;-82
2024/01/13 11:36:59;;;;;;;19.83;9.98;;;;;;;0.05;60.27;100103.94;7766627;32;39177;-82
2024/01/13 11:41:16;;;;;;;25.27;11.77;;;;;;;-0.01;60.72;100108.25;7766549;32;39135;-81
2024/01/13 11:45:48;;;;;;;23.70;11.90;;;;;;;0.20;60.68;100097.66;7765574;32;37942;-83
2024/01/13 11:50:35;;;;;;;30.10;12.73;;;;;;;-0.15;60.33;100090.41;7765373;32;37944;-82
2024/01/13 11:54:53;;;;;;;20.67;11.90;;;;;;;0.05;60.39;100063.72;7766606;32;39858;-82
2024/01/13 11:59:09;;;;;;;25.90;13.57;;;;;;;0.14;60.54;100061.75;7766394;32;39890;-82
2024/01/13 12:03:25;;;;;;;21.85;11.73;;;;;;;-0.05;60.49;100044.50;7766217;32;39137;-82
2024/01/13 12:07:42;;;;;;;22.02;12.23;;;;;;;0.18;59.91;100058.47;7766384;32;38066;-82
2024/01/13 12:11:59;;;;;;;23.65;11.20;;;;;;;0.24;60.09;100050.66;7766260;32;40148;-82
2024/01/13 12:16:16;;;;;;;23.25;11.88;;;;;;;0.55;58.85;100034.09;7766197;32;39657;-83
2024/01/13 12:20:32;;;;;;;21.85;10.63;;;;;;;0.58;58.50;100033.69;7764151;32;38880;-83
2024/01/13 12:24:48;;;;;;;24.40;11.68;;;;;;;0.66;58.44;100030.84;7765905;32;37505;-83
2024/01/13 12:29:05;;;;;;;23.12;12.05;;;;;;;0.65;57.67;100026.50;7764866;32;40094;-82
2024/01/13 12:33:25;;;;;;;21.25;11.52;;;;;;;0.79;56.96;100013.13;7766064;32;39729;-82
2024/01/13 12:37:43;;;;;;;21.23;10.48;;;;;;;0.67;58.20;100024.44;7766001;32;38876;-82
2024/01/13 12:42:01;;;;;;;27.08;11.93;;;;;;;1.19;56.39;100007.81;7765977;32;38040;-82
2024/01/13 12:46:18;;;;;;;21.10;11.32;;;;;;;1.33;56.06;100006.81;7766196;32;38151;-82
2024/01/13 12:50:34;;;;;;;19.45;10.60;;;;;;;1.49;55.23;100008.25;7751770;32;39655;-82
2024/01/13 12:54:50;;;;;;;24.05;11.80;;;;;;;1.19;56.33;100005.12;7765723;32;38808;-82
2024/01/13 12:59:20;;;;;;;17.65;9.77;;;;;;;0.92;57.03;100016.66;7765627;32;36960;-82
2024/01/13 13:03:36;;;;;;;21.98;11.23;;;;;;;1.11;56.15;100011.53;7778312;32;39286;-82
2024/01/13 13:07:53;;;;;;;17.77;8.55;;;;;;;0.58;58.12;100019.47;7792668;32;40855;-82
2024/01/13 13:12:10;;;;;;;21.70;10.00;;;;;;;0.44;58.54;100008.66;7792566;32;38765;-81
2024/01/13 13:16:26;;;;;;;16.67;9.80;;;;;;;0.14;59.44;100013.50;7792511;32;36932;-83
2024/01/13 13:20:42;;;;;;;15.48;7.28;;;;;;;0.15;59.23;100010.59;7792434;32;39269;-80
2024/01/13 13:24:59;;;;;;;16.35;8.07;;;;;;;0.39;58.76;99996.88;7792206;32;40024;-81
2024/01/13 13:29:29;;;;;;;15.30;7.97;;;;;;;0.45;58.47;99994.25;7791586;32;37846;-80
2024/01/13 13:33:45;;;;;;;17.33;9.35;;;;;;;0.05;59.50;99999.38;7769552;32;37190;-81
2024/01/13 13:38:02;;;;;;;16.55;10.05;;;;;;;0.24;58.72;99988.97;7781641;32;38989;-81
2024/01/13 13:42:18;;;;;;;17.50;9.02;;;;;;;0.02;59.06;99988.25;7781554;32;40924;-81
2024/01/13 13:46:36;;;;;;;14.85;8.55;;;;;;;0.24;58.49;99980.94;7791621;32;39403;-82
2024/01/13 13:50:52;;;;;;;19.60;8.40;;;;;;;0.68;57.22;99977.78;7783476;32;37066;-81
2024/01/13 13:55:09;;;;;;;16.90;9.02;;;;;;;0.91;56.95;99977.44;7765225;32;39262;-82
2024/01/13 13:59:27;;;;;;;13.62;7.85;;;;;;;0.89;57.72;99975.97;7765748;32;39662;-82
2024/01/13 14:03:43;;;;;;;15.05;8.88;;;;;;;0.78;57.89;99960.47;7764774;32;37757;-82
2024/01/13 14:08:00;;;;;;;15.65;8.18;;;;;;;1.22;56.98;99951.00;7764860;32;37663;-82
2024/01/13 14:12:16;;;;;;;11.90;6.93;;;;;;;1.31;56.96;99947.06;7765254;32;39250;-82
2024/01/13 14:16:33;;;;;;;10.00;6.32;;;;;;;1.04;57.24;99935.53;7764760;32;41123;-82
2024/01/13 14:20:49;;;;;;;10.98;6.50;;;;;;;2.96;51.64;99911.69;7785425;32;38530;-82
2024/01/13 14:25:08;;;;;;;11.88;6.68;;;;;;;7.32;41.24;99886.25;7791616;32;37091;-82
2024/01/13 14:29:31;;;;;;;13.35;7.15;;;;;;;9.11;35.28;99866.88;7791762;32;39447;-82
2024/01/13 14:33:48;;;;;;;13.23;6.57;;;;;;;6.48;39.49;99878.06;7791626;32;40929;-82
2024/01/13 14:38:05;;;;;;;13.02;6.87;;;;;;;5.06;43.10;99886.37;7791505;32;37933;-83
2024/01/13 14:42:21;;;;;;;12.18;7.35;;;;;;;2.98;47.75;99896.16;7776911;32;37185;-82
2024/01/13 14:46:37;;;;;;;16.33;8.18;;;;;;;3.58;46.86;99886.69;7771615;32;39365;-82
2024/01/13 14:50:53;;;;;;;15.85;8.70;;;;;;;2.69;49.45;99896.75;7772617;32;39802;-81
2024/01/13 14:55:10;;;;;;;17.37;8.60;;;;;;;2.49;50.02;99880.75;7791251;32;37617;-81
2024/01/13 14:59:26;;;;;;;18.00;8.90;;;;;;;2.66;49.72;99881.03;7791337;32;37912;-82
2024/01/13 15:03:43;;;;;;;16.48;9.05;;;;;;;3.77;46.74;99876.72;7790940;32;39390;-82
2024/01/13 15:07:59;;;;;;;16.77;9.43;;;;;;;3.08;47.90;99851.72;7790751;32;40751;-82
2024/01/13 15:12:17;;;;;;;20.27;10.88;;;;;;;2.78;48.55;99873.94;7790540;32;37799;-82
2024/01/13 15:16:34;;;;;;;16.85;10.05;;;;;;;1.97;50.73;99875.44;7790672;32;37148;-83
2024/01/13 15:20:50;;;;;;;18.25;9.02;;;;;;;1.46;52.71;99877.84;7767690;32;39292;-83
2024/01/13 15:25:07;;;;;;;16.77;9.07;;;;;;;1.75;51.39;99864.94;7763017;32;40857;-82
2024/01/13 15:29:34;;;;;;;15.20;9.02;;;;;;;1.40;52.49;99867.12;7750543;32;37806;-83
2024/01/13 15:33:51;;;;;;;21.92;9.20;;;;;;;1.47;52.89;99858.00;7763090;32;37192;-83
2024/01/13 15:38:09;;;;;;;16.08;8.90;;;;;;;1.49;53.65;99829.06;7762963;32;39986;-83
2024/01/13 15:42:25;;;;;;;15.88;9.10;;;;;;;1.49;54.25;99834.44;7762702;32;40734;-83
2024/01/13 15:46:41;;;;;;;16.95;9.55;;;;;;;1.07;55.54;99836.59;7762641;32;37833;-83
2024/01/13 15:50:58;;;;;;;16.33;9.07;;;;;;;0.99;55.80;99855.59;7763455;32;37664;-85
2024/01/13 15:55:16;;;;;;;21.62;9.73;;;;;;;0.73;56.75;99843.81;7763209;32;40091;-85
2024/01/13 15:59:33;;;;;;;15.77;9.02;;;;;;;0.57;57.35;99841.56;7766469;32;39962;-83
2024/01/13 16:03:49;;;;;;;18.08;9.90;;;;;;;0.85;56.67;99837.84;7766224;32;38517;-85
2024/01/13 16:08:06;;;;;;;15.15;8.02;;;;;;;0.52;58.06;99844.03;7766430;32;37010;-84
2024/01/13 16:12:22;;;;;;;19.45;9.57;;;;;;;0.48;58.24;99840.91;7777275;32;38632;-84
2024/01/13 16:16:39;;;;;;;19.33;9.75;;;;;;;0.42;58.06;99847.09;7779271;32;39831;-83
2024/01/13 16:20:55;;;;;;;14.38;9.10;;;;;;;0.23;58.18;99854.09;7768150;32;38472;-83
2024/01/13 16:25:11;;;;;;;17.23;10.18;;;;;;;0.24;58.48;99839.63;7777216;32;37284;-83
2024/01/13 16:29:28;;;;;;;12.18;8.75;;;;;;;0.13;58.92;99840.22;7793284;32;39780;-83
2024/01/13 16:33:44;;;;;;;16.80;9.27;;;;;;;0.23;58.03;99834.50;7770303;32;40674;-83
2024/01/13 16:38:00;;;;;;;12.82;8.30;;;;;;;-0.31;59.77;99839.69;7765791;32;37976;-83
2024/01/13 16:42:17;;;;;;;17.33;8.27;;;;;;;-0.45;59.64;99838.78;7765892;32;37480;-83
2024/01/13 16:46:33;;;;;;;17.40;9.05;;;;;;;-0.08;59.33;99830.47;7765909;32;39255;-84
2024/01/13 16:50:50;;;;;;;15.55;8.65;;;;;;;-0.23;60.05;99814.56;7765838;32;40013;-84
2024/01/13 16:55:08;;;;;;;19.90;7.80;;;;;;;-0.48;60.89;99804.34;7765919;32;37995;-84
2024/01/13 16:59:25;;;;;;;18.75;10.32;;;;;;;-0.60;61.48;99811.31;7765783;32;38790;-83
2024/01/13 17:03:44;;;;;;;18.08;9.60;;;;;;;-0.91;62.30;99817.94;7781567;32;39205;-85
2024/01/13 17:08:01;;;;;;;15.07;9.55;;;;;;;-0.32;60.38;99810.41;7792148;32;40931;-84
2024/01/13 17:12:17;;;;;;;20.08;10.15;;;;;;;0.08;59.16;99805.97;7780375;32;37916;-85
2024/01/13 17:16:48;;;;;;;19.15;9.30;;;;;;;-0.50;59.99;99827.00;7765706;32;37260;-86
2024/01/13 17:21:04;;;;;;;17.67;10.40;;;;;;;-0.40;60.11;99819.41;7765770;32;39136;-86
2024/01/13 17:25:22;;;;;;;21.62;10.23;;;;;;;-0.69;60.74;99823.19;7765216;32;40107;-86
2024/01/13 17:29:38;;;;;;;20.35;11.23;;;;;;;-0.83;61.05;99809.75;7771539;32;38051;-86
2024/01/13 17:33:55;;;;;;;24.55;11.20;;;;;;;-0.68;60.98;99795.41;7765289;32;37250;-85
2024/01/13 17:38:11;;;;;;;20.25;11.02;;;;;;;-0.59;60.69;99794.19;7784556;32;40128;-85
2024/01/13 17:42:27;;;;;;;21.02;10.80;;;;;;;-0.17;59.60;99804.88;7782523;32;40749;-86
2024/01/13 17:46:58;;;;;;;21.37;10.82;;;;;;;-0.07;58.45;99808.84;7774183;32;37687;-87
2024/01/13 17:51:14;;;;;;;18.83;10.38;;;;;;;-0.35;59.06;99808.13;7770196;32;37781;-85
2024/01/13 17:55:30;;;;;;;24.60;13.13;;;;;;;-0.28;59.00;99787.53;7777628;32;39243;-86
2024/01/13 17:59:47;;;;;;;30.40;15.05;;;;;;;0.35;64.84;99790.75;7777342;32;40758;-85
2024/01/13 18:04:04;;;;;;;22.92;10.60;;;;;;;0.31;57.78;99780.63;7778015;32;38709;-86
2024/01/13 18:08:20;;;;;;;22.70;11.63;;;;;;;-0.04;58.66;99768.22;7776816;32;37161;-87
2024/01/13 18:12:36;;;;;;;19.62;10.23;;;;;;;-0.18;58.88;99763.88;7776174;32;40038;-85
2024/01/13 18:16:53;;;;;;;21.80;10.18;;;;;;;-0.21;58.96;99764.25;7776964;32;40794;-85
2024/01/13 18:21:09;;;;;;;21.08;11.57;;;;;;;-0.71;60.45;99756.44;7775886;32;38703;-85
2024/01/13 18:25:26;;;;;;;21.85;11.60;;;;;;;0.23;57.20;99762.09;7776574;32;37199;-85
2024/01/13 18:29:43;;;;;;;21.90;11.02;;;;;;;-0.25;58.53;99757.66;7774738;32;40064;-86
2024/01/13 18:33:59;;;;;;;22.42;10.82;;;;;;;-0.16;58.48;99748.41;7772931;32;38219;-86
2024/01/13 18:38:15;;;;;;;19.27;10.90;;;;;;;0.04;57.33;99731.56;7777708;32;37756;-86
2024/01/13 18:42:32;;;;;;;24.55;11.07;;;;;;;0.04;57.49;99736.91;7775523;32;37678;-88
2024/01/13 18:46:48;;;;;;;22.73;11.23;;;;;;;0.06;58.11;99732.16;7776532;32;38933;-89
2024/01/13 18:51:05;;;;;;;25.67;11.25;;;;;;;-0.22;58.56;99731.28;7776712;32;41044;-87
2024/01/13 18:55:22;;;;;;;19.17;11.15;;;;;;;-0.27;58.80;99723.03;7776896;32;37701;-87
2024/01/13 18:59:38;;;;;;;13.07;9.32;;;;;;;0.01;57.77;99710.50;7775366;32;37227;-86
2024/01/13 19:03:54;;;;;;;19.95;10.93;;;;;;;-1.02;60.39;99719.44;7775461;32;39500;-85
2024/01/13 19:08:15;;;;;;;18.08;10.27;;;;;;;-1.03;60.79;99718.63;7774678;32;40766;-86
2024/01/13 19:12:32;;;;;;;22.10;11.75;;;;;;;-1.05;60.81;99715.31;7775558;32;36574;-87
2024/01/13 19:16:48;;;;;;;26.02;12.98;;;;;;;-0.86;60.81;99713.78;7776435;32;37244;-86
2024/01/13 19:21:05;;;;;;;27.33;13.55;;;;;;;-0.41;58.86;99706.09;7776002;32;40128;-85
2024/01/13 19:25:22;;;;;;;26.60;13.55;;;;;;;-0.50;58.09;99704.66;7775143;32;39574;-87
2024/01/13 19:29:38;;;;;;;38.97;16.40;;;;;;;-0.14;56.91;99705.31;7775899;32;37592;-85
2024/01/13 19:33:54;;;;;;;32.08;15.15;;;;;;;-0.36;57.36;99693.94;7774703;32;38155;-86
2024/01/13 19:38:10;;;;;;;27.10;12.93;;;;;;;-0.54;58.07;99703.37;7765558;32;40135;-85
2024/01/13 19:42:27;;;;;;;28.90;16.52;;;;;;;-0.20;56.95;99697.06;7781678;32;40689;-85